Aikoumaru No.8 — JD3288 — position and weather

sailwx.info

Track history (hours):
 
Tides and Currents Weather Stations Pressure Air Temp Water Temp Dewpoint Dewpoint Depression Visibility Wind Speed Wind Dir Waves Ship Positions

Aikoumaru No.8

Last reported at 2014-Oct-30 10:31 UTC. Time now 2014-Oct-30 18:12 UTC.
Position N 34°37' E 134°56'.

Length 74 m; draft 4.5 m.

Type: Cargo ship. MMSI: 431003153.

Date/timePositionNaut miles runAvg speedWind from/ knotsBaromVisibWave heightAir tempDewpointWater temp
2014-Oct-30 10:31N 34°37' E 134°56'8 8.6
2014-Oct-30 09:33N 34°35' E 135°05'1311.0
2014-Oct-30 08:20N 34°22' E 135°01'1010.8
2014-Oct-30 07:23N 34°12' E 134°60'1111.7
2014-Oct-30 06:25N 34°00' E 135°01'246 9.9
2014-Oct-29 05:33N 35°14' E 139°46'1111.0
2014-Oct-29 04:33N 35°24' E 139°43'7 6.7
2014-Oct-29 03:30N 35°22' E 139°51'0 0.0
2014-Oct-29 02:30N 35°22' E 139°51'0 0.0
2014-Oct-29 01:30N 35°22' E 139°51'0 0.0
2014-Oct-29 00:33N 35°22' E 139°51'0 0.0
2014-Oct-28 22:18N 35°22' E 139°51'1 2.0
2014-Oct-28 21:33N 35°22' E 139°49'0 0.0
2014-Oct-28 20:33N 35°22' E 139°49'0 0.0
2014-Oct-28 19:33N 35°22' E 139°49'0 0.0
2014-Oct-28 18:33N 35°22' E 139°49'0 0.0
2014-Oct-28 17:33N 35°22' E 139°49'0 0.0
2014-Oct-28 16:33N 35°22' E 139°49'0 0.0
2014-Oct-28 15:33N 35°22' E 139°49'0 0.1
2014-Oct-28 14:33N 35°22' E 139°49'0 0.0
2014-Oct-28 13:27N 35°22' E 139°49'0 0.0
2014-Oct-28 12:33N 35°22' E 139°49'0 0.0
2014-Oct-28 11:33N 35°22' E 139°49'0 0.0
2014-Oct-28 10:21N 35°22' E 139°49'0 0.0
2014-Oct-28 09:30N 35°22' E 139°49'0 0.1
2014-Oct-28 08:33N 35°22' E 139°49'0 0.0
2014-Oct-28 07:33N 35°22' E 139°49'0 0.0
2014-Oct-28 06:33N 35°22' E 139°49'0 0.0
2014-Oct-28 05:33N 35°22' E 139°49'0 0.0
2014-Oct-28 04:27N 35°22' E 139°49'0 0.0
2014-Oct-28 03:30N 35°22' E 139°49'7 7.3
2014-Oct-28 02:34N 35°23' E 139°41'2 2.2
2014-Oct-28 01:32N 35°23' E 139°38'0 0.0
2014-Oct-28 00:32N 35°23' E 139°38'0 0.0
2014-Oct-27 23:32N 35°23' E 139°38'0 0.1
2014-Oct-27 22:33N 35°23' E 139°38'1 0.9
2014-Oct-27 21:32N 35°24' E 139°39'0 0.0
2014-Oct-27 20:32N 35°24' E 139°39'0 0.0
2014-Oct-27 19:32N 35°24' E 139°39'0 0.0
2014-Oct-27 18:32N 35°24' E 139°39'0 0.0
2014-Oct-27 17:32N 35°24' E 139°39'0 0.0
2014-Oct-27 16:32N 35°24' E 139°39'0 0.0
2014-Oct-27 15:32N 35°24' E 139°39'0 0.0
2014-Oct-27 14:32N 35°24' E 139°39'0 0.0
2014-Oct-27 13:29N 35°24' E 139°39'0 0.0
2014-Oct-27 12:32N 35°24' E 139°39'0 0.0
2014-Oct-27 11:32N 35°24' E 139°39'0 0.0
2014-Oct-27 10:32N 35°24' E 139°39'0 0.0
2014-Oct-27 09:32N 35°24' E 139°39'9 9.3
2014-Oct-27 08:32N 35°28' E 139°49'11 0.8
2014-Oct-26 18:10N 35°37' E 139°58'711.0
2014-Oct-26 17:33N 35°31' E 139°54'1211.7
2014-Oct-26 16:33N 35°22' E 139°45'1110.8
2014-Oct-26 15:33N 35°11' E 139°47'256 9.7
2014-Oct-25 13:06N 34°06' E 134°46'111 9.6
2014-Oct-25 01:33N 34°14' E 132°32'0 0.3
2014-Oct-25 00:10N 34°14' E 132°32'0 0.0
2014-Oct-24 23:22N 34°14' E 132°32'0 0.0
2014-Oct-24 22:16N 34°14' E 132°32'0 0.0
2014-Oct-24 21:28N 34°14' E 132°32'0 0.0
2014-Oct-24 19:28N 34°14' E 132°32'0 0.0
2014-Oct-24 18:22N 34°14' E 132°32'0 0.0
2014-Oct-24 17:28N 34°14' E 132°32'0 0.2
2014-Oct-24 15:31N 34°14' E 132°32'0 0.0
2014-Oct-24 14:31N 34°14' E 132°32'0 0.0
2014-Oct-24 13:31N 34°14' E 132°32'0 0.0
2014-Oct-24 12:22N 34°14' E 132°32'0 0.0
2014-Oct-24 10:31N 34°14' E 132°32'  
Track history (hours):
 
Tides and Currents Weather Stations Pressure Air Temp Water Temp Dewpoint Dewpoint Depression Visibility Wind Speed Wind Dir Waves Ship Positions

Aikoumaru No.8

Last reported at 2014-Oct-30 10:31 UTC. Time now 2014-Oct-30 18:12 UTC.
Position N 34°37' E 134°56'.

Length 74 m; draft 4.5 m.

Type: Cargo ship. MMSI: 431003153.

Date/timePositionNaut miles runAvg speedWind from/ knotsBaromVisibWave heightAir tempDewpointWater temp
2014-Oct-30 10:31N 34°37' E 134°56'8 8.6
2014-Oct-30 09:33N 34°35' E 135°05'1311.0
2014-Oct-30 08:20N 34°22' E 135°01'1010.8
2014-Oct-30 07:23N 34°12' E 134°60'1111.7
2014-Oct-30 06:25N 34°00' E 135°01'246 9.9
2014-Oct-29 05:33N 35°14' E 139°46'1111.0
2014-Oct-29 04:33N 35°24' E 139°43'7 6.7
2014-Oct-29 03:30N 35°22' E 139°51'0 0.0
2014-Oct-29 02:30N 35°22' E 139°51'0 0.0
2014-Oct-29 01:30N 35°22' E 139°51'0 0.0
2014-Oct-29 00:33N 35°22' E 139°51'0 0.0
2014-Oct-28 22:18N 35°22' E 139°51'1 2.0
2014-Oct-28 21:33N 35°22' E 139°49'0 0.0
2014-Oct-28 20:33N 35°22' E 139°49'0 0.0
2014-Oct-28 19:33N 35°22' E 139°49'0 0.0
2014-Oct-28 18:33N 35°22' E 139°49'0 0.0
2014-Oct-28 17:33N 35°22' E 139°49'0 0.0
2014-Oct-28 16:33N 35°22' E 139°49'0 0.0
2014-Oct-28 15:33N 35°22' E 139°49'0 0.1
2014-Oct-28 14:33N 35°22' E 139°49'0 0.0
2014-Oct-28 13:27N 35°22' E 139°49'0 0.0
2014-Oct-28 12:33N 35°22' E 139°49'0 0.0
2014-Oct-28 11:33N 35°22' E 139°49'0 0.0
2014-Oct-28 10:21N 35°22' E 139°49'0 0.0
2014-Oct-28 09:30N 35°22' E 139°49'0 0.1
2014-Oct-28 08:33N 35°22' E 139°49'0 0.0
2014-Oct-28 07:33N 35°22' E 139°49'0 0.0
2014-Oct-28 06:33N 35°22' E 139°49'0 0.0
2014-Oct-28 05:33N 35°22' E 139°49'0 0.0
2014-Oct-28 04:27N 35°22' E 139°49'0 0.0
2014-Oct-28 03:30N 35°22' E 139°49'7 7.3
2014-Oct-28 02:34N 35°23' E 139°41'2 2.2
2014-Oct-28 01:32N 35°23' E 139°38'0 0.0
2014-Oct-28 00:32N 35°23' E 139°38'0 0.0
2014-Oct-27 23:32N 35°23' E 139°38'0 0.1
2014-Oct-27 22:33N 35°23' E 139°38'1 0.9
2014-Oct-27 21:32N 35°24' E 139°39'0 0.0
2014-Oct-27 20:32N 35°24' E 139°39'0 0.0
2014-Oct-27 19:32N 35°24' E 139°39'0 0.0
2014-Oct-27 18:32N 35°24' E 139°39'0 0.0
2014-Oct-27 17:32N 35°24' E 139°39'0 0.0
2014-Oct-27 16:32N 35°24' E 139°39'0 0.0
2014-Oct-27 15:32N 35°24' E 139°39'0 0.0
2014-Oct-27 14:32N 35°24' E 139°39'0 0.0
2014-Oct-27 13:29N 35°24' E 139°39'0 0.0
2014-Oct-27 12:32N 35°24' E 139°39'0 0.0
2014-Oct-27 11:32N 35°24' E 139°39'0 0.0
2014-Oct-27 10:32N 35°24' E 139°39'0 0.0
2014-Oct-27 09:32N 35°24' E 139°39'9 9.3
2014-Oct-27 08:32N 35°28' E 139°49'11 0.8
2014-Oct-26 18:10N 35°37' E 139°58'711.0
2014-Oct-26 17:33N 35°31' E 139°54'1211.7
2014-Oct-26 16:33N 35°22' E 139°45'1110.8
2014-Oct-26 15:33N 35°11' E 139°47'256 9.7
2014-Oct-25 13:06N 34°06' E 134°46'111 9.6
2014-Oct-25 01:33N 34°14' E 132°32'0 0.3
2014-Oct-25 00:10N 34°14' E 132°32'0 0.0
2014-Oct-24 23:22N 34°14' E 132°32'0 0.0
2014-Oct-24 22:16N 34°14' E 132°32'0 0.0
2014-Oct-24 21:28N 34°14' E 132°32'0 0.0
2014-Oct-24 19:28N 34°14' E 132°32'0 0.0
2014-Oct-24 18:22N 34°14' E 132°32'0 0.0
2014-Oct-24 17:28N 34°14' E 132°32'0 0.2
2014-Oct-24 15:31N 34°14' E 132°32'0 0.0
2014-Oct-24 14:31N 34°14' E 132°32'0 0.0
2014-Oct-24 13:31N 34°14' E 132°32'0 0.0
2014-Oct-24 12:22N 34°14' E 132°32'0 0.0
2014-Oct-24 10:31N 34°14' E 132°32'  

Dump ship's entire track history